sensor_id;sensor_type;location;lat;lon;timestamp;P1;durP1;ratioP1;P2;durP2;ratioP2
21297;SDS011;10808;48.010;11.326;2023-05-29T00:00:27;10.45;;;6.80;;
21297;SDS011;10808;48.010;11.326;2023-05-29T00:02:54;10.65;;;6.90;;
21297;SDS011;10808;48.010;11.326;2023-05-29T00:05:20;11.18;;;7.10;;
21297;SDS011;10808;48.010;11.326;2023-05-29T00:07:46;10.45;;;7.13;;
21297;SDS011;10808;48.010;11.326;2023-05-29T00:10:14;10.07;;;7.03;;
21297;SDS011;10808;48.010;11.326;2023-05-29T00:12:41;10.68;;;7.13;;
21297;SDS011;10808;48.010;11.326;2023-05-29T00:15:08;10.23;;;7.22;;
21297;SDS011;10808;48.010;11.326;2023-05-29T00:17:35;9.97;;;7.03;;
21297;SDS011;10808;48.010;11.326;2023-05-29T00:20:01;11.40;;;7.18;;
21297;SDS011;10808;48.010;11.326;2023-05-29T00:22:35;11.68;;;7.30;;
21297;SDS011;10808;48.010;11.326;2023-05-29T00:25:04;10.90;;;7.28;;
21297;SDS011;10808;48.010;11.326;2023-05-29T00:27:31;11.68;;;6.90;;
21297;SDS011;10808;48.010;11.326;2023-05-29T00:29:58;10.10;;;6.82;;
21297;SDS011;10808;48.010;11.326;2023-05-29T00:32:25;10.20;;;6.97;;
21297;SDS011;10808;48.010;11.326;2023-05-29T00:34:53;10.52;;;7.22;;
21297;SDS011;10808;48.010;11.326;2023-05-29T00:37:20;12.50;;;7.03;;
21297;SDS011;10808;48.010;11.326;2023-05-29T00:39:49;13.63;;;7.20;;
21297;SDS011;10808;48.010;11.326;2023-05-29T00:42:16;13.10;;;7.22;;
21297;SDS011;10808;48.010;11.326;2023-05-29T00:44:42;10.35;;;6.97;;
21297;SDS011;10808;48.010;11.326;2023-05-29T00:47:08;13.13;;;7.28;;
21297;SDS011;10808;48.010;11.326;2023-05-29T00:49:34;11.13;;;7.25;;
21297;SDS011;10808;48.010;11.326;2023-05-29T00:52:01;10.07;;;6.95;;
21297;SDS011;10808;48.010;11.326;2023-05-29T00:54:32;10.55;;;6.75;;
21297;SDS011;10808;48.010;11.326;2023-05-29T00:56:59;10.90;;;6.72;;
21297;SDS011;10808;48.010;11.326;2023-05-29T00:59:27;13.13;;;7.40;;
21297;SDS011;10808;48.010;11.326;2023-05-29T01:01:55;10.65;;;6.90;;
21297;SDS011;10808;48.010;11.326;2023-05-29T01:04:25;9.67;;;6.63;;
21297;SDS011;10808;48.010;11.326;2023-05-29T01:06:52;11.27;;;6.93;;
21297;SDS011;10808;48.010;11.326;2023-05-29T01:09:18;10.07;;;6.65;;
21297;SDS011;10808;48.010;11.326;2023-05-29T01:11:45;9.57;;;6.88;;
21297;SDS011;10808;48.010;11.326;2023-05-29T01:14:31;11.60;;;7.10;;
21297;SDS011;10808;48.010;11.326;2023-05-29T01:17:16;10.77;;;7.05;;
21297;SDS011;10808;48.010;11.326;2023-05-29T01:20:02;10.70;;;7.28;;
21297;SDS011;10808;48.010;11.326;2023-05-29T01:25:29;9.80;;;6.88;;
21297;SDS011;10808;48.010;11.326;2023-05-29T01:28:13;10.32;;;6.95;;
21297;SDS011;10808;48.010;11.326;2023-05-29T01:30:44;10.50;;;6.93;;
21297;SDS011;10808;48.010;11.326;2023-05-29T01:33:11;10.00;;;6.60;;
21297;SDS011;10808;48.010;11.326;2023-05-29T01:35:37;13.50;;;6.75;;
21297;SDS011;10808;48.010;11.326;2023-05-29T01:38:03;9.32;;;6.50;;
21297;SDS011;10808;48.010;11.326;2023-05-29T01:40:29;9.93;;;6.88;;
21297;SDS011;10808;48.010;11.326;2023-05-29T01:42:55;10.30;;;6.97;;
21297;SDS011;10808;48.010;11.326;2023-05-29T01:45:22;11.23;;;6.70;;
21297;SDS011;10808;48.010;11.326;2023-05-29T01:47:48;10.52;;;6.35;;
21297;SDS011;10808;48.010;11.326;2023-05-29T01:50:15;10.20;;;6.78;;
21297;SDS011;10808;48.010;11.326;2023-05-29T01:52:43;9.52;;;6.38;;
21297;SDS011;10808;48.010;11.326;2023-05-29T01:55:09;10.65;;;6.60;;
21297;SDS011;10808;48.010;11.326;2023-05-29T01:57:36;9.63;;;6.57;;
21297;SDS011;10808;48.010;11.326;2023-05-29T02:00:03;11.40;;;6.30;;
21297;SDS011;10808;48.010;11.326;2023-05-29T02:02:40;10.90;;;6.85;;
21297;SDS011;10808;48.010;11.326;2023-05-29T02:05:07;9.57;;;6.60;;
21297;SDS011;10808;48.010;11.326;2023-05-29T02:07:34;10.45;;;6.40;;
21297;SDS011;10808;48.010;11.326;2023-05-29T02:10:05;9.82;;;6.45;;
21297;SDS011;10808;48.010;11.326;2023-05-29T02:12:31;10.25;;;6.22;;
21297;SDS011;10808;48.010;11.326;2023-05-29T02:14:57;11.27;;;6.80;;
21297;SDS011;10808;48.010;11.326;2023-05-29T02:17:23;9.80;;;6.30;;
21297;SDS011;10808;48.010;11.326;2023-05-29T02:19:50;8.82;;;6.22;;
21297;SDS011;10808;48.010;11.326;2023-05-29T02:22:17;10.73;;;6.60;;
21297;SDS011;10808;48.010;11.326;2023-05-29T02:24:43;9.60;;;6.40;;
21297;SDS011;10808;48.010;11.326;2023-05-29T02:27:10;10.67;;;6.73;;
21297;SDS011;10808;48.010;11.326;2023-05-29T02:29:36;11.55;;;6.85;;
21297;SDS011;10808;48.010;11.326;2023-05-29T02:32:02;9.02;;;6.15;;
21297;SDS011;10808;48.010;11.326;2023-05-29T02:34:30;9.18;;;6.22;;
21297;SDS011;10808;48.010;11.326;2023-05-29T02:36:56;9.88;;;6.40;;
21297;SDS011;10808;48.010;11.326;2023-05-29T02:39:22;10.48;;;6.00;;
21297;SDS011;10808;48.010;11.326;2023-05-29T02:41:48;9.10;;;6.15;;
21297;SDS011;10808;48.010;11.326;2023-05-29T02:44:14;10.20;;;6.43;;
21297;SDS011;10808;48.010;11.326;2023-05-29T02:46:40;9.30;;;6.20;;
21297;SDS011;10808;48.010;11.326;2023-05-29T02:49:06;10.10;;;6.38;;
21297;SDS011;10808;48.010;11.326;2023-05-29T02:51:32;12.00;;;6.55;;
21297;SDS011;10808;48.010;11.326;2023-05-29T02:53:58;9.23;;;6.18;;
21297;SDS011;10808;48.010;11.326;2023-05-29T02:56:24;8.15;;;5.70;;
21297;SDS011;10808;48.010;11.326;2023-05-29T02:58:50;8.32;;;6.07;;
21297;SDS011;10808;48.010;11.326;2023-05-29T03:01:16;9.95;;;6.50;;
21297;SDS011;10808;48.010;11.326;2023-05-29T03:03:43;10.65;;;6.25;;
21297;SDS011;10808;48.010;11.326;2023-05-29T03:06:09;9.40;;;5.77;;
21297;SDS011;10808;48.010;11.326;2023-05-29T03:08:38;8.80;;;5.57;;
21297;SDS011;10808;48.010;11.326;2023-05-29T03:11:13;9.07;;;5.72;;
21297;SDS011;10808;48.010;11.326;2023-05-29T03:13:40;8.25;;;5.80;;
21297;SDS011;10808;48.010;11.326;2023-05-29T03:16:06;8.13;;;6.20;;
21297;SDS011;10808;48.010;11.326;2023-05-29T03:18:33;8.07;;;5.57;;
21297;SDS011;10808;48.010;11.326;2023-05-29T03:21:00;10.27;;;6.03;;
21297;SDS011;10808;48.010;11.326;2023-05-29T03:23:29;13.15;;;6.50;;
21297;SDS011;10808;48.010;11.326;2023-05-29T03:25:55;8.90;;;5.68;;
21297;SDS011;10808;48.010;11.326;2023-05-29T03:28:24;9.57;;;5.90;;
21297;SDS011;10808;48.010;11.326;2023-05-29T03:30:50;8.70;;;5.88;;
21297;SDS011;10808;48.010;11.326;2023-05-29T03:33:17;8.07;;;5.78;;
21297;SDS011;10808;48.010;11.326;2023-05-29T03:35:43;9.63;;;5.82;;
21297;SDS011;10808;48.010;11.326;2023-05-29T03:38:09;9.10;;;5.95;;
21297;SDS011;10808;48.010;11.326;2023-05-29T03:40:35;8.77;;;6.10;;
21297;SDS011;10808;48.010;11.326;2023-05-29T03:43:01;12.68;;;5.80;;
21297;SDS011;10808;48.010;11.326;2023-05-29T03:45:27;8.33;;;5.80;;
21297;SDS011;10808;48.010;11.326;2023-05-29T03:47:53;9.68;;;5.93;;
21297;SDS011;10808;48.010;11.326;2023-05-29T03:50:19;9.65;;;6.03;;
21297;SDS011;10808;48.010;11.326;2023-05-29T03:52:45;9.77;;;5.97;;
21297;SDS011;10808;48.010;11.326;2023-05-29T03:55:11;9.02;;;5.72;;
21297;SDS011;10808;48.010;11.326;2023-05-29T03:57:38;9.38;;;6.07;;
21297;SDS011;10808;48.010;11.326;2023-05-29T04:00:09;8.95;;;6.00;;
21297;SDS011;10808;48.010;11.326;2023-05-29T04:02:40;8.57;;;6.20;;
21297;SDS011;10808;48.010;11.326;2023-05-29T04:05:06;10.03;;;6.20;;
21297;SDS011;10808;48.010;11.326;2023-05-29T04:07:34;9.07;;;6.13;;
21297;SDS011;10808;48.010;11.326;2023-05-29T04:10:04;8.93;;;6.20;;
21297;SDS011;10808;48.010;11.326;2023-05-29T04:12:32;8.27;;;5.85;;
21297;SDS011;10808;48.010;11.326;2023-05-29T04:14:58;12.48;;;6.03;;
21297;SDS011;10808;48.010;11.326;2023-05-29T04:17:24;11.43;;;6.22;;
21297;SDS011;10808;48.010;11.326;2023-05-29T04:19:50;8.65;;;6.15;;
21297;SDS011;10808;48.010;11.326;2023-05-29T04:22:16;9.18;;;5.72;;
21297;SDS011;10808;48.010;11.326;2023-05-29T04:24:43;7.80;;;5.68;;
21297;SDS011;10808;48.010;11.326;2023-05-29T04:27:09;8.85;;;6.20;;
21297;SDS011;10808;48.010;11.326;2023-05-29T04:29:38;10.55;;;5.85;;
21297;SDS011;10808;48.010;11.326;2023-05-29T04:32:08;7.97;;;5.50;;
21297;SDS011;10808;48.010;11.326;2023-05-29T04:34:36;8.88;;;5.60;;
21297;SDS011;10808;48.010;11.326;2023-05-29T04:37:05;7.47;;;5.10;;
21297;SDS011;10808;48.010;11.326;2023-05-29T04:39:32;7.78;;;5.60;;
21297;SDS011;10808;48.010;11.326;2023-05-29T04:41:58;8.70;;;5.78;;
21297;SDS011;10808;48.010;11.326;2023-05-29T04:44:27;9.52;;;5.70;;
21297;SDS011;10808;48.010;11.326;2023-05-29T04:46:54;7.88;;;5.75;;
21297;SDS011;10808;48.010;11.326;2023-05-29T04:49:22;9.13;;;5.70;;
21297;SDS011;10808;48.010;11.326;2023-05-29T04:51:48;8.18;;;5.70;;
21297;SDS011;10808;48.010;11.326;2023-05-29T04:54:18;10.93;;;6.20;;
21297;SDS011;10808;48.010;11.326;2023-05-29T04:56:45;7.70;;;5.53;;
21297;SDS011;10808;48.010;11.326;2023-05-29T04:59:12;10.32;;;6.25;;
21297;SDS011;10808;48.010;11.326;2023-05-29T05:01:38;8.73;;;6.05;;
21297;SDS011;10808;48.010;11.326;2023-05-29T05:04:04;8.50;;;5.95;;
21297;SDS011;10808;48.010;11.326;2023-05-29T05:06:31;10.35;;;5.90;;
21297;SDS011;10808;48.010;11.326;2023-05-29T05:08:57;9.32;;;5.97;;
21297;SDS011;10808;48.010;11.326;2023-05-29T05:11:23;8.75;;;5.80;;
21297;SDS011;10808;48.010;11.326;2023-05-29T05:13:49;6.65;;;5.20;;
21297;SDS011;10808;48.010;11.326;2023-05-29T05:16:15;8.20;;;5.38;;
21297;SDS011;10808;48.010;11.326;2023-05-29T05:18:43;8.50;;;5.28;;
21297;SDS011;10808;48.010;11.326;2023-05-29T05:21:09;7.30;;;5.18;;
21297;SDS011;10808;48.010;11.326;2023-05-29T05:23:35;12.43;;;6.97;;
21297;SDS011;10808;48.010;11.326;2023-05-29T05:26:02;13.00;;;7.53;;
21297;SDS011;10808;48.010;11.326;2023-05-29T05:28:28;10.45;;;7.20;;
21297;SDS011;10808;48.010;11.326;2023-05-29T05:30:54;12.23;;;7.32;;
21297;SDS011;10808;48.010;11.326;2023-05-29T05:33:20;10.80;;;7.20;;
21297;SDS011;10808;48.010;11.326;2023-05-29T05:35:46;12.85;;;7.35;;
21297;SDS011;10808;48.010;11.326;2023-05-29T05:38:12;9.05;;;6.82;;
21297;SDS011;10808;48.010;11.326;2023-05-29T05:40:38;13.05;;;7.38;;
21297;SDS011;10808;48.010;11.326;2023-05-29T05:43:05;12.07;;;7.57;;
21297;SDS011;10808;48.010;11.326;2023-05-29T05:45:31;11.20;;;7.07;;
21297;SDS011;10808;48.010;11.326;2023-05-29T05:47:57;11.95;;;6.97;;
21297;SDS011;10808;48.010;11.326;2023-05-29T05:50:23;11.13;;;6.60;;
21297;SDS011;10808;48.010;11.326;2023-05-29T05:52:50;10.80;;;6.53;;
21297;SDS011;10808;48.010;11.326;2023-05-29T05:55:16;11.65;;;6.75;;
21297;SDS011;10808;48.010;11.326;2023-05-29T05:57:42;12.30;;;6.85;;
21297;SDS011;10808;48.010;11.326;2023-05-29T06:00:08;9.88;;;6.47;;
21297;SDS011;10808;48.010;11.326;2023-05-29T06:02:38;12.10;;;6.50;;
21297;SDS011;10808;48.010;11.326;2023-05-29T06:05:08;10.75;;;6.28;;
21297;SDS011;10808;48.010;11.326;2023-05-29T06:07:35;10.77;;;6.47;;
21297;SDS011;10808;48.010;11.326;2023-05-29T06:10:02;9.68;;;6.32;;
21297;SDS011;10808;48.010;11.326;2023-05-29T06:12:29;9.10;;;6.13;;
21297;SDS011;10808;48.010;11.326;2023-05-29T06:14:55;7.97;;;5.35;;
21297;SDS011;10808;48.010;11.326;2023-05-29T06:17:22;9.13;;;5.43;;
21297;SDS011;10808;48.010;11.326;2023-05-29T06:19:49;8.48;;;5.90;;
21297;SDS011;10808;48.010;11.326;2023-05-29T06:22:15;8.05;;;5.80;;
21297;SDS011;10808;48.010;11.326;2023-05-29T06:24:41;9.60;;;5.30;;
21297;SDS011;10808;48.010;11.326;2023-05-29T06:27:07;9.80;;;5.13;;
21297;SDS011;10808;48.010;11.326;2023-05-29T06:29:33;7.90;;;5.78;;
21297;SDS011;10808;48.010;11.326;2023-05-29T06:31:59;8.43;;;5.13;;
21297;SDS011;10808;48.010;11.326;2023-05-29T06:34:25;9.68;;;5.68;;
21297;SDS011;10808;48.010;11.326;2023-05-29T06:36:52;9.00;;;5.47;;
21297;SDS011;10808;48.010;11.326;2023-05-29T06:39:18;8.37;;;5.63;;
21297;SDS011;10808;48.010;11.326;2023-05-29T06:41:45;7.63;;;5.55;;
21297;SDS011;10808;48.010;11.326;2023-05-29T06:44:11;9.52;;;5.57;;
21297;SDS011;10808;48.010;11.326;2023-05-29T06:46:38;8.63;;;5.63;;
21297;SDS011;10808;48.010;11.326;2023-05-29T06:49:04;8.40;;;5.60;;
21297;SDS011;10808;48.010;11.326;2023-05-29T06:51:30;9.85;;;5.20;;
21297;SDS011;10808;48.010;11.326;2023-05-29T06:53:57;7.68;;;5.38;;
21297;SDS011;10808;48.010;11.326;2023-05-29T06:56:23;7.07;;;5.10;;
21297;SDS011;10808;48.010;11.326;2023-05-29T06:58:51;8.43;;;5.60;;
21297;SDS011;10808;48.010;11.326;2023-05-29T07:01:17;8.75;;;5.30;;
21297;SDS011;10808;48.010;11.326;2023-05-29T07:03:43;9.27;;;5.22;;
21297;SDS011;10808;48.010;11.326;2023-05-29T07:06:09;7.47;;;5.35;;
21297;SDS011;10808;48.010;11.326;2023-05-29T07:08:35;7.78;;;5.00;;
21297;SDS011;10808;48.010;11.326;2023-05-29T07:11:01;7.90;;;4.90;;
21297;SDS011;10808;48.010;11.326;2023-05-29T07:13:27;8.02;;;5.13;;
21297;SDS011;10808;48.010;11.326;2023-05-29T07:15:53;7.80;;;5.15;;
21297;SDS011;10808;48.010;11.326;2023-05-29T07:18:19;8.27;;;4.72;;
21297;SDS011;10808;48.010;11.326;2023-05-29T07:20:45;6.57;;;4.80;;
21297;SDS011;10808;48.010;11.326;2023-05-29T07:23:11;6.65;;;5.25;;
21297;SDS011;10808;48.010;11.326;2023-05-29T07:25:37;6.83;;;4.97;;
21297;SDS011;10808;48.010;11.326;2023-05-29T07:28:03;7.25;;;4.40;;
21297;SDS011;10808;48.010;11.326;2023-05-29T07:30:30;7.50;;;4.75;;
21297;SDS011;10808;48.010;11.326;2023-05-29T07:32:56;6.72;;;5.07;;
21297;SDS011;10808;48.010;11.326;2023-05-29T07:35:22;6.28;;;4.82;;
21297;SDS011;10808;48.010;11.326;2023-05-29T07:37:48;7.70;;;5.43;;
21297;SDS011;10808;48.010;11.326;2023-05-29T07:40:15;7.50;;;5.10;;
21297;SDS011;10808;48.010;11.326;2023-05-29T07:42:41;6.57;;;4.88;;
21297;SDS011;10808;48.010;11.326;2023-05-29T07:45:07;7.63;;;4.75;;
21297;SDS011;10808;48.010;11.326;2023-05-29T07:47:33;7.80;;;4.72;;
21297;SDS011;10808;48.010;11.326;2023-05-29T07:49:59;6.57;;;5.13;;
21297;SDS011;10808;48.010;11.326;2023-05-29T07:52:25;6.25;;;4.60;;
21297;SDS011;10808;48.010;11.326;2023-05-29T07:54:52;8.40;;;5.00;;
21297;SDS011;10808;48.010;11.326;2023-05-29T07:57:21;7.53;;;4.78;;
21297;SDS011;10808;48.010;11.326;2023-05-29T07:59:47;8.07;;;5.40;;
21297;SDS011;10808;48.010;11.326;2023-05-29T08:02:15;5.32;;;4.50;;
21297;SDS011;10808;48.010;11.326;2023-05-29T08:04:41;6.20;;;4.95;;
21297;SDS011;10808;48.010;11.326;2023-05-29T08:07:07;5.50;;;4.57;;
21297;SDS011;10808;48.010;11.326;2023-05-29T08:09:35;7.47;;;4.72;;
21297;SDS011;10808;48.010;11.326;2023-05-29T08:12:01;7.27;;;4.77;;
21297;SDS011;10808;48.010;11.326;2023-05-29T08:14:27;6.03;;;4.80;;
21297;SDS011;10808;48.010;11.326;2023-05-29T08:16:54;8.07;;;4.97;;
21297;SDS011;10808;48.010;11.326;2023-05-29T08:19:20;6.68;;;4.68;;
21297;SDS011;10808;48.010;11.326;2023-05-29T08:21:46;7.72;;;5.00;;
21297;SDS011;10808;48.010;11.326;2023-05-29T08:24:12;7.72;;;5.07;;
21297;SDS011;10808;48.010;11.326;2023-05-29T08:26:38;5.95;;;4.80;;
21297;SDS011;10808;48.010;11.326;2023-05-29T08:29:04;6.70;;;4.77;;
21297;SDS011;10808;48.010;11.326;2023-05-29T08:31:30;6.30;;;4.75;;
21297;SDS011;10808;48.010;11.326;2023-05-29T08:33:56;6.07;;;4.60;;
21297;SDS011;10808;48.010;11.326;2023-05-29T08:36:22;6.23;;;4.97;;
21297;SDS011;10808;48.010;11.326;2023-05-29T08:38:48;7.72;;;4.80;;
21297;SDS011;10808;48.010;11.326;2023-05-29T08:41:21;7.03;;;5.00;;
21297;SDS011;10808;48.010;11.326;2023-05-29T08:44:16;6.50;;;4.73;;
21297;SDS011;10808;48.010;11.326;2023-05-29T08:46:54;6.75;;;4.75;;
21297;SDS011;10808;48.010;11.326;2023-05-29T08:49:21;8.10;;;4.85;;
21297;SDS011;10808;48.010;11.326;2023-05-29T08:51:49;6.78;;;5.00;;
21297;SDS011;10808;48.010;11.326;2023-05-29T08:54:26;7.35;;;4.72;;
21297;SDS011;10808;48.010;11.326;2023-05-29T08:56:52;7.85;;;5.00;;
21297;SDS011;10808;48.010;11.326;2023-05-29T08:59:18;5.95;;;4.60;;
21297;SDS011;10808;48.010;11.326;2023-05-29T09:01:45;6.70;;;4.63;;
21297;SDS011;10808;48.010;11.326;2023-05-29T09:04:11;7.10;;;4.80;;
21297;SDS011;10808;48.010;11.326;2023-05-29T09:06:37;5.70;;;4.70;;
21297;SDS011;10808;48.010;11.326;2023-05-29T09:09:06;6.68;;;4.90;;
21297;SDS011;10808;48.010;11.326;2023-05-29T09:11:32;7.78;;;4.85;;
21297;SDS011;10808;48.010;11.326;2023-05-29T09:13:59;9.45;;;5.07;;
21297;SDS011;10808;48.010;11.326;2023-05-29T09:16:25;6.25;;;5.05;;
21297;SDS011;10808;48.010;11.326;2023-05-29T09:18:51;7.43;;;5.03;;
21297;SDS011;10808;48.010;11.326;2023-05-29T09:21:27;9.82;;;4.78;;
21297;SDS011;10808;48.010;11.326;2023-05-29T09:23:58;6.35;;;4.85;;
21297;SDS011;10808;48.010;11.326;2023-05-29T09:26:28;5.57;;;4.80;;
21297;SDS011;10808;48.010;11.326;2023-05-29T09:28:55;6.32;;;4.57;;
21297;SDS011;10808;48.010;11.326;2023-05-29T09:31:21;6.25;;;5.03;;
21297;SDS011;10808;48.010;11.326;2023-05-29T09:33:48;5.90;;;4.57;;
21297;SDS011;10808;48.010;11.326;2023-05-29T09:36:23;7.70;;;5.07;;
21297;SDS011;10808;48.010;11.326;2023-05-29T09:38:50;7.65;;;5.43;;
21297;SDS011;10808;48.010;11.326;2023-05-29T09:41:20;6.63;;;4.83;;
21297;SDS011;10808;48.010;11.326;2023-05-29T09:43:50;5.47;;;4.70;;
21297;SDS011;10808;48.010;11.326;2023-05-29T09:46:16;7.72;;;5.28;;
21297;SDS011;10808;48.010;11.326;2023-05-29T09:48:45;6.40;;;4.97;;
21297;SDS011;10808;48.010;11.326;2023-05-29T09:51:19;6.18;;;5.00;;
21297;SDS011;10808;48.010;11.326;2023-05-29T09:53:49;6.93;;;4.97;;
21297;SDS011;10808;48.010;11.326;2023-05-29T09:56:19;9.02;;;5.07;;
21297;SDS011;10808;48.010;11.326;2023-05-29T09:58:51;7.60;;;5.20;;
21297;SDS011;10808;48.010;11.326;2023-05-29T10:01:23;7.45;;;4.57;;
21297;SDS011;10808;48.010;11.326;2023-05-29T10:03:49;8.13;;;5.00;;
21297;SDS011;10808;48.010;11.326;2023-05-29T10:06:16;6.45;;;4.93;;
21297;SDS011;10808;48.010;11.326;2023-05-29T10:08:46;6.00;;;4.83;;
21297;SDS011;10808;48.010;11.326;2023-05-29T10:11:17;6.82;;;4.72;;
21297;SDS011;10808;48.010;11.326;2023-05-29T10:13:50;7.35;;;5.43;;
21297;SDS011;10808;48.010;11.326;2023-05-29T10:16:21;7.30;;;5.00;;
21297;SDS011;10808;48.010;11.326;2023-05-29T10:18:53;9.88;;;5.43;;
21297;SDS011;10808;48.010;11.326;2023-05-29T10:21:20;7.45;;;5.15;;
21297;SDS011;10808;48.010;11.326;2023-05-29T10:23:47;5.82;;;5.07;;
21297;SDS011;10808;48.010;11.326;2023-05-29T10:26:19;6.47;;;4.80;;
21297;SDS011;10808;48.010;11.326;2023-05-29T10:31:28;7.35;;;5.00;;
21297;SDS011;10808;48.010;11.326;2023-05-29T10:36:35;5.85;;;4.60;;
21297;SDS011;10808;48.010;11.326;2023-05-29T10:39:08;6.45;;;4.90;;
21297;SDS011;10808;48.010;11.326;2023-05-29T10:41:34;7.57;;;5.10;;
21297;SDS011;10808;48.010;11.326;2023-05-29T10:49:25;7.70;;;4.97;;
21297;SDS011;10808;48.010;11.326;2023-05-29T10:51:52;6.43;;;5.10;;
21297;SDS011;10808;48.010;11.326;2023-05-29T10:54:24;8.05;;;5.07;;
21297;SDS011;10808;48.010;11.326;2023-05-29T10:56:52;6.25;;;4.72;;
21297;SDS011;10808;48.010;11.326;2023-05-29T10:59:20;7.88;;;5.38;;
21297;SDS011;10808;48.010;11.326;2023-05-29T11:01:46;6.55;;;5.20;;
21297;SDS011;10808;48.010;11.326;2023-05-29T11:06:45;7.22;;;4.95;;
21297;SDS011;10808;48.010;11.326;2023-05-29T11:15:10;7.22;;;4.60;;
21297;SDS011;10808;48.010;11.326;2023-05-29T11:20:06;8.75;;;5.82;;
21297;SDS011;10808;48.010;11.326;2023-05-29T11:25:14;7.05;;;4.90;;
21297;SDS011;10808;48.010;11.326;2023-05-29T11:27:42;6.73;;;4.50;;
21297;SDS011;10808;48.010;11.326;2023-05-29T11:30:09;6.25;;;4.90;;
21297;SDS011;10808;48.010;11.326;2023-05-29T11:32:36;7.85;;;4.97;;
21297;SDS011;10808;48.010;11.326;2023-05-29T11:35:09;5.53;;;4.63;;
21297;SDS011;10808;48.010;11.326;2023-05-29T11:37:37;7.28;;;4.70;;
21297;SDS011;10808;48.010;11.326;2023-05-29T11:40:04;7.57;;;4.80;;
21297;SDS011;10808;48.010;11.326;2023-05-29T11:42:40;6.18;;;4.78;;
21297;SDS011;10808;48.010;11.326;2023-05-29T11:45:15;6.55;;;4.57;;
21297;SDS011;10808;48.010;11.326;2023-05-29T11:47:55;6.65;;;4.93;;
21297;SDS011;10808;48.010;11.326;2023-05-29T11:50:24;8.35;;;5.22;;
21297;SDS011;10808;48.010;11.326;2023-05-29T11:52:51;8.23;;;4.90;;
21297;SDS011;10808;48.010;11.326;2023-05-29T11:55:18;7.15;;;5.15;;
21297;SDS011;10808;48.010;11.326;2023-05-29T11:57:46;7.25;;;4.18;;
21297;SDS011;10808;48.010;11.326;2023-05-29T12:00:15;6.97;;;4.68;;
21297;SDS011;10808;48.010;11.326;2023-05-29T12:02:44;7.05;;;4.55;;
21297;SDS011;10808;48.010;11.326;2023-05-29T12:05:12;6.43;;;4.57;;
21297;SDS011;10808;48.010;11.326;2023-05-29T12:10:17;5.57;;;4.25;;
21297;SDS011;10808;48.010;11.326;2023-05-29T12:12:50;5.82;;;4.60;;
21297;SDS011;10808;48.010;11.326;2023-05-29T12:15:17;7.20;;;4.78;;
21297;SDS011;10808;48.010;11.326;2023-05-29T12:17:45;5.43;;;4.30;;
21297;SDS011;10808;48.010;11.326;2023-05-29T12:20:12;5.78;;;4.00;;
21297;SDS011;10808;48.010;11.326;2023-05-29T12:22:39;6.85;;;4.78;;
21297;SDS011;10808;48.010;11.326;2023-05-29T12:27:34;7.20;;;4.30;;
21297;SDS011;10808;48.010;11.326;2023-05-29T12:30:10;5.40;;;3.95;;
21297;SDS011;10808;48.010;11.326;2023-05-29T12:32:45;5.50;;;4.17;;
21297;SDS011;10808;48.010;11.326;2023-05-29T12:35:13;5.90;;;4.47;;
21297;SDS011;10808;48.010;11.326;2023-05-29T12:37:41;6.03;;;4.45;;
21297;SDS011;10808;48.010;11.326;2023-05-29T12:40:18;6.15;;;4.32;;
21297;SDS011;10808;48.010;11.326;2023-05-29T12:42:55;4.95;;;4.22;;
21297;SDS011;10808;48.010;11.326;2023-05-29T12:45:27;5.18;;;4.22;;
21297;SDS011;10808;48.010;11.326;2023-05-29T12:47:55;5.53;;;4.30;;
21297;SDS011;10808;48.010;11.326;2023-05-29T12:50:26;5.10;;;4.30;;
21297;SDS011;10808;48.010;11.326;2023-05-29T12:52:57;5.28;;;4.13;;
21297;SDS011;10808;48.010;11.326;2023-05-29T12:55:31;5.30;;;4.50;;
21297;SDS011;10808;48.010;11.326;2023-05-29T12:58:04;9.23;;;4.28;;
21297;SDS011;10808;48.010;11.326;2023-05-29T13:00:34;6.00;;;4.70;;
21297;SDS011;10808;48.010;11.326;2023-05-29T13:03:01;6.63;;;4.60;;
21297;SDS011;10808;48.010;11.326;2023-05-29T13:05:27;5.33;;;4.20;;
21297;SDS011;10808;48.010;11.326;2023-05-29T13:07:54;6.20;;;4.40;;
21297;SDS011;10808;48.010;11.326;2023-05-29T13:10:20;5.80;;;4.30;;
21297;SDS011;10808;48.010;11.326;2023-05-29T13:12:47;6.35;;;4.20;;
21297;SDS011;10808;48.010;11.326;2023-05-29T13:15:19;5.83;;;4.30;;
21297;SDS011;10808;48.010;11.326;2023-05-29T13:17:45;6.10;;;3.97;;
21297;SDS011;10808;48.010;11.326;2023-05-29T13:20:11;8.73;;;4.35;;
21297;SDS011;10808;48.010;11.326;2023-05-29T13:22:39;7.30;;;4.13;;
21297;SDS011;10808;48.010;11.326;2023-05-29T13:25:06;5.25;;;4.20;;
21297;SDS011;10808;48.010;11.326;2023-05-29T13:27:35;6.90;;;4.38;;
21297;SDS011;10808;48.010;11.326;2023-05-29T13:30:06;5.50;;;3.97;;
21297;SDS011;10808;48.010;11.326;2023-05-29T13:32:33;5.30;;;3.90;;
21297;SDS011;10808;48.010;11.326;2023-05-29T13:34:59;5.40;;;4.20;;
21297;SDS011;10808;48.010;11.326;2023-05-29T13:37:25;7.25;;;4.10;;
21297;SDS011;10808;48.010;11.326;2023-05-29T13:39:53;5.38;;;4.00;;
21297;SDS011;10808;48.010;11.326;2023-05-29T13:42:19;5.55;;;4.05;;
21297;SDS011;10808;48.010;11.326;2023-05-29T13:44:46;6.50;;;3.83;;
21297;SDS011;10808;48.010;11.326;2023-05-29T13:47:13;4.55;;;4.00;;
21297;SDS011;10808;48.010;11.326;2023-05-29T13:49:39;6.40;;;4.07;;
21297;SDS011;10808;48.010;11.326;2023-05-29T13:52:05;6.17;;;4.07;;
21297;SDS011;10808;48.010;11.326;2023-05-29T13:54:32;5.20;;;4.05;;
21297;SDS011;10808;48.010;11.326;2023-05-29T13:57:01;6.97;;;4.20;;
21297;SDS011;10808;48.010;11.326;2023-05-29T13:59:32;5.60;;;4.30;;
21297;SDS011;10808;48.010;11.326;2023-05-29T14:01:58;4.70;;;3.70;;
21297;SDS011;10808;48.010;11.326;2023-05-29T14:04:24;5.33;;;4.17;;
21297;SDS011;10808;48.010;11.326;2023-05-29T14:06:51;6.53;;;3.87;;
21297;SDS011;10808;48.010;11.326;2023-05-29T14:09:18;9.43;;;5.93;;
21297;SDS011;10808;48.010;11.326;2023-05-29T14:11:52;7.65;;;4.32;;
21297;SDS011;10808;48.010;11.326;2023-05-29T14:14:19;5.40;;;4.13;;
21297;SDS011;10808;48.010;11.326;2023-05-29T14:16:45;6.97;;;4.05;;
21297;SDS011;10808;48.010;11.326;2023-05-29T14:19:11;4.90;;;3.78;;
21297;SDS011;10808;48.010;11.326;2023-05-29T14:21:37;5.23;;;3.90;;
21297;SDS011;10808;48.010;11.326;2023-05-29T14:24:03;7.45;;;3.80;;
21297;SDS011;10808;48.010;11.326;2023-05-29T14:26:29;5.53;;;3.93;;
21297;SDS011;10808;48.010;11.326;2023-05-29T14:28:55;6.53;;;4.32;;
21297;SDS011;10808;48.010;11.326;2023-05-29T14:31:21;6.07;;;4.23;;
21297;SDS011;10808;48.010;11.326;2023-05-29T14:33:47;17.05;;;4.53;;
21297;SDS011;10808;48.010;11.326;2023-05-29T14:36:13;7.03;;;4.38;;
21297;SDS011;10808;48.010;11.326;2023-05-29T14:38:39;5.05;;;4.03;;
21297;SDS011;10808;48.010;11.326;2023-05-29T14:41:06;4.63;;;4.00;;
21297;SDS011;10808;48.010;11.326;2023-05-29T14:43:32;5.63;;;3.83;;
21297;SDS011;10808;48.010;11.326;2023-05-29T14:45:58;6.75;;;3.95;;
21297;SDS011;10808;48.010;11.326;2023-05-29T14:48:24;4.65;;;3.80;;
21297;SDS011;10808;48.010;11.326;2023-05-29T14:50:50;5.97;;;4.50;;
21297;SDS011;10808;48.010;11.326;2023-05-29T14:53:16;6.60;;;4.20;;
21297;SDS011;10808;48.010;11.326;2023-05-29T14:55:43;5.25;;;4.15;;
21297;SDS011;10808;48.010;11.326;2023-05-29T14:58:09;4.85;;;3.85;;
21297;SDS011;10808;48.010;11.326;2023-05-29T15:00:35;4.72;;;3.97;;
21297;SDS011;10808;48.010;11.326;2023-05-29T15:03:01;4.55;;;3.65;;
21297;SDS011;10808;48.010;11.326;2023-05-29T15:05:28;5.22;;;3.70;;